Time;durP1;ratioP1;P1;durP2;ratioP2;P2;SDS_P1;SDS_P2;PMS_P1;PMS_P2;Temp;Humidity;BMP_temperature;BMP_pressure;BME280_temperature;BME280_humidity;BME280_pressure;Samples;Min_cycle;Max_cycle;Signal;HPM_P1;HPM_P2
2022/10/04 00:02:32;;;;;;;2.20;1.57;;;15.30;65.00;;;;;;5030396;28;20435;-51
2022/10/04 00:05:08;;;;;;;1.50;1.27;;;15.30;65.10;;;;;;5031941;28;20463;-52
2022/10/04 00:07:43;;;;;;;2.70;1.77;;;15.30;65.00;;;;;;5030330;28;20475;-51
2022/10/04 00:10:19;;;;;;;1.80;1.30;;;15.30;65.00;;;;;;5032202;28;20438;-49
2022/10/04 00:12:50;;;;;;;2.13;1.30;;;15.30;65.00;;;;;;5031371;28;20944;-50
2022/10/04 00:15:22;;;;;;;5.07;2.43;;;15.30;65.00;;;;;;5041823;28;20462;-50
2022/10/04 00:18:08;;;;;;;1.93;1.33;;;15.30;65.00;;;;;;5036486;28;20792;-51
2022/10/04 00:20:58;;;;;;;2.60;1.00;;;15.40;65.10;;;;;;5031263;28;20424;-51
2022/10/04 00:23:30;;;;;;;2.53;2.03;;;15.30;64.90;;;;;;5028083;28;20914;-50
2022/10/04 00:26:00;;;;;;;4.03;1.83;;;15.30;64.90;;;;;;5031369;28;20974;-51
2022/10/04 00:28:44;;;;;;;1.93;1.60;;;15.30;64.90;;;;;;5031752;28;20459;-52
2022/10/04 00:31:22;;;;;;;3.13;1.70;;;15.40;65.00;;;;;;5031958;28;20454;-52
2022/10/04 00:33:56;;;;;;;2.53;1.50;;;15.40;65.00;;;;;;5048980;28;20553;-52
2022/10/04 00:36:48;;;;;;;3.40;1.70;;;15.30;64.90;;;;;;5031509;28;20549;-51
2022/10/04 00:39:49;;;;;;;2.13;1.70;;;15.40;64.80;;;;;;5020550;28;20895;-53
2022/10/04 00:42:38;;;;;;;2.13;1.67;;;15.30;64.90;;;;;;5041346;28;20438;-52
2022/10/04 00:45:13;;;;;;;3.27;1.60;;;15.30;64.80;;;;;;5022095;28;20503;-51
2022/10/04 00:48:11;;;;;;;1.40;1.30;;;15.40;64.90;;;;;;5025912;28;20457;-52
2022/10/04 00:50:43;;;;;;;2.10;1.60;;;15.30;64.80;;;;;;5029411;28;20450;-52
2022/10/04 00:53:21;;;;;;;1.73;1.60;;;15.30;64.80;;;;;;5051496;28;20807;-50
2022/10/04 00:55:55;;;;;;;3.53;1.60;;;15.30;64.70;;;;;;5027535;28;21032;-51
2022/10/04 00:58:29;;;;;;;3.00;1.30;;;15.30;64.70;;;;;;5048041;28;21015;-51
2022/10/04 01:00:59;;;;;;;2.00;1.53;;;15.30;64.70;;;;;;5047420;28;20954;-51
2022/10/04 01:03:31;;;;;;;2.13;1.40;;;15.30;64.80;;;;;;5034983;28;20565;-50
2022/10/04 01:06:04;;;;;;;1.67;1.57;;;15.30;64.70;;;;;;5033685;28;20467;-51
2022/10/04 01:08:37;;;;;;;1.70;1.60;;;15.30;64.70;;;;;;5029721;28;21005;-52
2022/10/04 01:11:10;;;;;;;2.27;1.60;;;15.30;64.70;;;;;;5035422;28;21011;-53
2022/10/04 01:13:42;;;;;;;1.77;1.33;;;15.30;64.70;;;;;;5035428;28;20443;-51
2022/10/04 01:16:15;;;;;;;1.67;1.07;;;15.30;64.70;;;;;;5035272;28;20520;-52
2022/10/04 01:18:44;;;;;;;1.73;1.30;;;15.30;64.80;;;;;;5025742;28;20479;-51
2022/10/04 01:21:27;;;;;;;1.53;1.43;;;15.30;64.70;;;;;;5018566;28;20439;-52
2022/10/04 01:24:21;;;;;;;1.20;1.10;;;15.30;64.70;;;;;;5036838;28;20481;-52
2022/10/04 01:26:49;;;;;;;2.10;1.00;;;15.30;64.70;;;;;;5009965;28;20467;-50
2022/10/04 01:29:24;;;;;;;1.50;0.97;;;15.30;64.70;;;;;;5044776;28;20477;-50
2022/10/04 01:31:55;;;;;;;3.30;2.00;;;15.30;64.70;;;;;;5028729;28;20447;-51
2022/10/04 01:34:26;;;;;;;1.40;1.10;;;15.30;64.70;;;;;;5034511;28;20467;-50
2022/10/04 01:36:56;;;;;;;1.27;1.00;;;15.30;64.70;;;;;;5036910;28;20470;-52
2022/10/04 01:39:28;;;;;;;2.27;1.40;;;15.30;64.70;;;;;;5029100;28;20547;-51
2022/10/04 01:42:00;;;;;;;1.90;1.40;;;15.30;64.70;;;;;;5034294;28;20827;-51
2022/10/04 01:44:36;;;;;;;1.27;1.17;;;15.30;64.70;;;;;;5048149;28;20834;-51
2022/10/04 01:47:12;;;;;;;1.40;1.30;;;15.30;64.70;;;;;;5050897;28;20470;-51
2022/10/04 01:49:43;;;;;;;4.47;2.27;;;15.30;64.70;;;;;;5018969;28;20498;-51
2022/10/04 01:52:18;;;;;;;2.10;1.90;;;15.30;64.60;;;;;;5034913;28;20829;-49
2022/10/04 01:54:52;;;;;;;1.50;1.40;;;15.30;64.70;;;;;;5050612;28;20461;-52
2022/10/04 01:57:24;;;;;;;2.67;1.40;;;15.30;64.70;;;;;;5026443;28;20427;-52
2022/10/04 01:59:57;;;;;;;2.50;1.70;;;15.30;64.60;;;;;;5029508;28;20475;-50
2022/10/04 02:02:33;;;;;;;3.10;2.40;;;15.30;64.70;;;;;;5020881;28;20432;-51
2022/10/04 02:05:05;;;;;;;2.33;1.77;;;15.30;64.70;;;;;;5032628;28;20824;-51
2022/10/04 02:07:35;;;;;;;2.73;1.30;;;15.30;64.60;;;;;;5031323;28;20478;-51
2022/10/04 02:10:12;;;;;;;1.63;1.53;;;15.30;64.60;;;;;;5034088;28;20497;-51
2022/10/04 02:12:45;;;;;;;1.67;1.20;;;15.30;64.60;;;;;;5034205;28;20443;-51
2022/10/04 02:15:14;;;;;;;2.83;1.60;;;15.30;64.70;;;;;;5034301;28;20474;-52
2022/10/04 02:17:44;;;;;;;3.03;1.47;;;15.20;64.50;;;;;;5049352;28;20438;-52
2022/10/04 02:20:17;;;;;;;1.77;1.33;;;15.20;64.50;;;;;;5033766;28;20459;-52
2022/10/04 02:22:49;;;;;;;1.50;1.37;;;15.20;64.50;;;;;;5033424;28;20451;-52
2022/10/04 02:25:21;;;;;;;1.83;1.20;;;15.30;64.60;;;;;;5034257;28;20470;-52
2022/10/04 02:27:54;;;;;;;2.33;1.40;;;15.20;64.50;;;;;;5024145;28;20467;-52
2022/10/04 02:30:24;;;;;;;1.23;1.13;;;15.20;64.40;;;;;;5034077;28;20438;-52
2022/10/04 02:32:57;;;;;;;1.57;1.47;;;15.30;64.50;;;;;;5049564;28;20439;-50
2022/10/04 02:35:28;;;;;;;2.00;1.80;;;15.20;64.40;;;;;;5051748;28;20858;-51
2022/10/04 02:38:05;;;;;;;2.80;1.60;;;15.20;64.40;;;;;;5047293;28;20557;-52
2022/10/04 02:40:39;;;;;;;1.20;1.10;;;15.20;64.50;;;;;;5047769;28;20946;-51
2022/10/04 02:43:15;;;;;;;1.40;1.20;;;15.20;64.40;;;;;;5050312;28;20445;-50
2022/10/04 02:45:50;;;;;;;1.47;1.37;;;15.20;64.40;;;;;;5033612;28;20462;-53
2022/10/04 02:48:31;;;;;;;2.00;1.23;;;15.20;64.40;;;;;;5024841;28;20469;-51
2022/10/04 02:51:06;;;;;;;1.20;1.10;;;15.20;64.30;;;;;;5031602;28;20447;-49
2022/10/04 02:53:48;;;;;;;2.00;1.53;;;15.20;64.40;;;;;;5033353;28;20437;-51
2022/10/04 02:56:18;;;;;;;1.90;1.47;;;15.20;64.30;;;;;;5025589;28;20482;-52
2022/10/04 02:58:47;;;;;;;2.67;1.30;;;15.20;64.30;;;;;;5036124;28;20471;-50
2022/10/04 03:01:25;;;;;;;1.73;1.33;;;15.20;64.30;;;;;;5032678;28;20470;-52
2022/10/04 03:03:55;;;;;;;1.60;1.50;;;15.20;64.30;;;;;;5028469;28;20555;-51
2022/10/04 03:06:31;;;;;;;2.50;1.47;;;15.20;64.30;;;;;;5031572;28;20467;-52
2022/10/04 03:09:03;;;;;;;1.40;1.30;;;15.20;64.20;;;;;;5031586;28;21081;-50
2022/10/04 03:11:36;;;;;;;2.03;1.30;;;15.20;64.30;;;;;;5038744;28;20439;-50
2022/10/04 03:14:10;;;;;;;1.83;1.07;;;15.20;64.30;;;;;;5023836;28;20468;-50
2022/10/04 03:16:41;;;;;;;1.37;1.27;;;15.20;64.20;;;;;;5015874;28;20513;-53
2022/10/04 03:19:13;;;;;;;2.30;1.83;;;15.20;64.20;;;;;;5029399;28;20816;-49
2022/10/04 03:21:43;;;;;;;2.20;2.10;;;15.20;64.20;;;;;;5025777;28;20447;-51
2022/10/04 03:24:18;;;;;;;2.17;1.40;;;15.20;64.20;;;;;;5032059;28;20841;-50
2022/10/04 03:26:52;;;;;;;1.57;1.47;;;15.20;64.20;;;;;;5069661;23;20996;-71
2022/10/04 03:29:23;;;;;;;2.40;1.20;;;15.20;64.20;;;;;;5021859;28;20483;-73
2022/10/04 03:31:57;;;;;;;1.63;1.43;;;15.20;64.20;;;;;;5027202;28;20431;-72
2022/10/04 03:34:28;;;;;;;2.10;1.63;;;15.10;64.10;;;;;;5029598;28;20475;-72
2022/10/04 03:36:58;;;;;;;1.33;1.23;;;15.20;64.20;;;;;;5016006;28;20564;-73
2022/10/04 03:39:31;;;;;;;1.67;1.57;;;15.20;64.20;;;;;;5010170;28;20848;-70
2022/10/04 03:42:05;;;;;;;1.23;1.00;;;15.10;64.10;;;;;;5010991;28;20439;-72
2022/10/04 03:44:34;;;;;;;2.87;1.90;;;15.10;64.10;;;;;;5014496;28;20529;-73
2022/10/04 03:47:07;;;;;;;1.70;1.60;;;15.10;65.40;;;;;;5021597;28;20484;-73
2022/10/04 03:49:37;;;;;;;1.90;1.47;;;15.10;64.00;;;;;;5017441;28;20476;-73
2022/10/04 03:52:15;;;;;;;1.20;1.00;;;15.10;64.10;;;;;;5014278;28;20490;-72
2022/10/04 03:54:44;;;;;;;1.40;1.30;;;15.10;64.10;;;;;;5009680;28;20481;-72
2022/10/04 03:57:14;;;;;;;1.57;1.47;;;15.10;64.10;;;;;;5009939;28;20515;-72
2022/10/04 03:59:43;;;;;;;1.57;1.43;;;15.10;64.10;;;;;;5002829;28;20471;-72
2022/10/04 04:02:19;;;;;;;1.30;1.10;;;15.10;64.00;;;;;;5002311;28;20523;-72
2022/10/04 04:04:56;;;;;;;2.30;1.50;;;15.10;64.00;;;;;;5001518;28;21066;-72
2022/10/04 04:07:28;;;;;;;1.27;1.17;;;15.10;64.00;;;;;;5008560;28;20522;-72
2022/10/04 04:10:04;;;;;;;1.40;1.20;;;15.10;63.90;;;;;;4992755;28;20476;-72
2022/10/04 04:12:38;;;;;;;1.20;1.10;;;15.10;64.00;;;;;;5010205;28;20966;-72
2022/10/04 04:15:10;;;;;;;1.53;1.43;;;15.10;64.00;;;;;;5001844;28;20472;-72
2022/10/04 04:17:40;;;;;;;1.90;1.47;;;15.10;64.10;;;;;;5007588;28;20539;-72
2022/10/04 04:20:26;;;;;;;2.00;1.80;;;15.10;64.00;;;;;;4993740;28;20543;-72
2022/10/04 04:23:01;;;;;;;2.70;1.37;;;15.10;63.80;;;;;;5017716;28;20484;-72
2022/10/04 04:25:33;;;;;;;1.50;1.07;;;15.10;63.90;;;;;;5008846;28;20443;-72
2022/10/04 04:28:12;;;;;;;1.83;1.53;;;15.10;64.00;;;;;;5009570;28;20456;-72
2022/10/04 04:30:45;;;;;;;1.83;1.20;;;15.10;63.80;;;;;;5005486;28;20538;-72
2022/10/04 04:33:21;;;;;;;1.90;1.70;;;15.10;63.80;;;;;;4998435;28;20963;-72
2022/10/04 04:35:55;;;;;;;1.20;1.10;;;15.10;63.80;;;;;;5009770;28;20498;-72
2022/10/04 04:38:25;;;;;;;2.13;1.10;;;15.00;63.50;;;;;;5007765;28;21134;-72
2022/10/04 04:40:54;;;;;;;1.73;1.53;;;15.10;63.70;;;;;;5016530;28;20425;-72
2022/10/04 04:43:27;;;;;;;2.43;1.40;;;15.10;63.70;;;;;;5008663;28;20852;-72
2022/10/04 04:45:57;;;;;;;1.83;1.73;;;15.10;63.70;;;;;;5009256;28;20464;-72
2022/10/04 04:48:48;;;;;;;1.60;1.33;;;15.10;63.70;;;;;;5011236;28;20460;-72
2022/10/04 04:51:21;;;;;;;1.60;1.37;;;15.00;63.60;;;;;;5015108;28;20524;-72
2022/10/04 04:53:51;;;;;;;1.40;1.30;;;15.00;63.60;;;;;;5033552;28;20530;-72
2022/10/04 04:56:23;;;;;;;1.40;1.30;;;15.00;63.60;;;;;;5005446;28;21069;-72
2022/10/04 04:58:56;;;;;;;1.03;0.87;;;15.00;63.60;;;;;;5023425;28;20506;-72
2022/10/04 05:01:28;;;;;;;2.60;1.27;;;15.00;63.60;;;;;;5010085;28;20509;-72
2022/10/04 05:04:04;;;;;;;1.40;1.30;;;15.00;63.60;;;;;;5009576;28;20514;-72
2022/10/04 05:06:35;;;;;;;1.77;1.40;;;15.00;63.70;;;;;;5009233;28;20517;-72
2022/10/04 05:09:05;;;;;;;2.03;1.33;;;15.00;63.50;;;;;;5009358;28;20483;-72
2022/10/04 05:11:37;;;;;;;1.57;1.40;;;15.00;63.40;;;;;;5017946;28;20463;-72
2022/10/04 05:14:10;;;;;;;3.07;1.60;;;15.00;63.60;;;;;;4985278;28;20504;-72
2022/10/04 05:16:44;;;;;;;4.20;1.70;;;15.00;63.50;;;;;;5009188;28;20542;-72
2022/10/04 05:19:17;;;;;;;1.47;1.37;;;15.00;63.60;;;;;;5009375;28;20460;-72
2022/10/04 05:21:47;;;;;;;1.80;1.10;;;15.00;63.60;;;;;;5009146;28;20424;-72
2022/10/04 05:24:22;;;;;;;2.07;1.43;;;15.00;63.50;;;;;;5001844;28;20510;-72
2022/10/04 05:26:53;;;;;;;2.07;1.47;;;15.00;64.90;;;;;;5010299;28;20471;-72
2022/10/04 05:29:26;;;;;;;1.40;1.17;;;15.00;63.60;;;;;;5008796;28;20889;-72
2022/10/04 05:32:05;;;;;;;2.00;1.40;;;15.00;63.60;;;;;;4992237;28;20539;-72
2022/10/04 05:34:38;;;;;;;1.90;1.80;;;15.00;63.50;;;;;;5002588;28;20483;-72
2022/10/04 05:37:21;;;;;;;1.87;1.40;;;15.00;63.60;;;;;;4984147;28;20491;-72
2022/10/04 05:40:02;;;;;;;1.23;1.13;;;15.00;63.60;;;;;;5010946;28;20506;-72
2022/10/04 05:42:38;;;;;;;1.20;1.10;;;15.00;63.60;;;;;;5012854;28;20509;-72
2022/10/04 05:45:17;;;;;;;2.33;1.43;;;15.00;63.60;;;;;;5026017;28;20743;-72
2022/10/04 05:47:48;;;;;;;2.43;1.60;;;15.00;63.50;;;;;;5008255;28;20470;-72
2022/10/04 05:50:19;;;;;;;2.53;1.87;;;15.00;63.50;;;;;;5010339;28;20586;-72
2022/10/04 05:52:52;;;;;;;1.60;1.50;;;15.00;63.50;;;;;;5007766;28;20861;-72
2022/10/04 05:55:35;;;;;;;1.87;1.30;;;15.00;63.30;;;;;;5022087;28;20459;-72
2022/10/04 05:58:25;;;;;;;1.50;1.40;;;15.00;63.40;;;;;;5011961;28;20467;-72
2022/10/04 06:01:19;;;;;;;2.00;1.60;;;15.00;63.40;;;;;;5012246;28;20714;-72
2022/10/04 06:04:04;;;;;;;1.90;1.50;;;14.90;63.30;;;;;;5018674;28;20467;-72
2022/10/04 06:06:40;;;;;;;2.03;1.30;;;14.90;63.30;;;;;;5018012;28;20499;-72
2022/10/04 06:09:14;;;;;;;2.60;2.00;;;14.90;63.30;;;;;;5011079;28;20568;-72
2022/10/04 06:11:51;;;;;;;1.60;1.50;;;14.90;63.30;;;;;;5012275;28;20854;-72
2022/10/04 06:14:47;;;;;;;2.40;2.00;;;14.90;63.30;;;;;;5012462;28;20581;-72
2022/10/04 06:17:42;;;;;;;2.37;2.17;;;14.90;63.30;;;;;;5008438;28;20871;-72
2022/10/04 06:20:31;;;;;;;1.70;1.60;;;14.90;63.40;;;;;;5012037;28;20990;-72
2022/10/04 06:23:02;;;;;;;2.30;1.73;;;14.90;63.30;;;;;;5011866;28;20983;-72
2022/10/04 06:25:37;;;;;;;2.00;1.80;;;14.90;63.30;;;;;;5054045;28;20446;-72
2022/10/04 06:28:17;;;;;;;4.23;2.10;;;14.90;63.30;;;;;;5028516;28;20495;-72
2022/10/04 06:31:11;;;;;;;1.93;1.73;;;14.80;63.10;;;;;;5011476;28;20886;-72
2022/10/04 06:33:59;;;;;;;2.03;1.70;;;14.80;63.20;;;;;;5025014;28;21325;-72
2022/10/04 06:36:47;;;;;;;2.77;2.50;;;14.80;63.30;;;;;;5003777;28;20464;-72
2022/10/04 06:39:41;;;;;;;2.67;2.20;;;14.80;63.30;;;;;;5020146;28;20470;-72
2022/10/04 06:42:43;;;;;;;2.63;2.10;;;14.80;63.20;;;;;;5008682;28;20436;-72
2022/10/04 06:45:34;;;;;;;4.37;2.20;;;14.80;63.30;;;;;;5013326;28;20464;-72
2022/10/04 06:48:32;;;;;;;2.57;1.87;;;14.80;63.50;;;;;;5009675;28;20452;-71
2022/10/04 06:51:10;;;;;;;2.17;1.80;;;14.80;63.40;;;;;;5027337;28;20471;-72
2022/10/04 06:53:45;;;;;;;1.80;1.70;;;14.70;63.50;;;;;;5010450;28;20471;-72
2022/10/04 06:56:34;;;;;;;2.40;2.20;;;14.70;63.60;;;;;;5004922;28;20452;-73
2022/10/04 06:59:28;;;;;;;2.53;2.33;;;14.70;63.70;;;;;;5009261;28;20475;-72
2022/10/04 07:01:58;;;;;;;2.47;2.27;;;14.70;63.70;;;;;;4988588;28;20476;-72
2022/10/04 07:04:35;;;;;;;3.37;2.20;;;14.70;63.80;;;;;;5010906;28;20472;-71
2022/10/04 07:07:37;;;;;;;2.00;1.83;;;14.70;63.80;;;;;;5012787;28;21123;-73
2022/10/04 07:10:23;;;;;;;3.00;1.97;;;14.70;63.80;;;;;;5010345;28;20482;-73
2022/10/04 07:13:10;;;;;;;2.93;2.27;;;14.70;63.90;;;;;;5015974;28;20799;-73
2022/10/04 07:15:48;;;;;;;2.13;1.93;;;14.70;63.90;;;;;;5007974;28;20444;-71
2022/10/04 07:18:23;;;;;;;2.50;2.30;;;14.70;64.00;;;;;;5006263;28;20472;-71
2022/10/04 07:21:03;;;;;;;2.17;1.97;;;14.70;64.00;;;;;;5007837;28;20759;-73
2022/10/04 07:23:39;;;;;;;2.50;2.30;;;14.70;64.00;;;;;;5028470;28;20428;-72
2022/10/04 07:26:19;;;;;;;2.10;1.80;;;14.70;63.90;;;;;;5026463;28;20452;-73
2022/10/04 07:31:37;;;;;;;1.83;1.60;;;14.80;64.00;;;;;;5009801;28;20550;-71
2022/10/04 07:34:11;;;;;;;2.27;1.73;;;14.80;64.00;;;;;;5009387;28;20527;-73
2022/10/04 07:36:45;;;;;;;1.43;1.30;;;14.80;64.00;;;;;;5002867;28;20558;-73
2022/10/04 07:39:18;;;;;;;2.20;1.50;;;14.80;63.90;;;;;;5006115;28;20475;-72
2022/10/04 07:41:51;;;;;;;2.70;1.77;;;14.80;63.90;;;;;;5011853;28;20494;-73
2022/10/04 07:44:29;;;;;;;2.50;2.17;;;14.80;63.90;;;;;;5017450;28;20994;-72
2022/10/04 07:47:03;;;;;;;2.80;2.60;;;14.80;63.90;;;;;;5008270;28;20460;-72
2022/10/04 07:49:38;;;;;;;2.10;1.90;;;14.80;64.10;;;;;;5010933;28;20472;-72
2022/10/04 07:52:40;;;;;;;4.40;1.40;;;14.70;64.00;;;;;;5011893;28;20507;-72
2022/10/04 07:55:27;;;;;;;1.97;1.80;;;14.80;63.90;;;;;;4997751;28;20468;-72
2022/10/04 07:58:11;;;;;;;4.60;1.97;;;14.80;63.90;;;;;;5021514;28;20529;-72
2022/10/04 08:00:49;;;;;;;2.43;2.23;;;14.80;63.90;;;;;;5010726;28;20428;-72
2022/10/04 08:03:31;;;;;;;2.50;1.80;;;14.80;64.20;;;;;;5010178;28;20517;-72
2022/10/04 08:06:10;;;;;;;5.93;2.30;;;14.80;63.80;;;;;;5010465;28;20426;-72
2022/10/04 08:09:23;;;;;;;2.00;1.70;;;14.90;64.20;;;;;;5011144;28;20576;-70
2022/10/04 08:12:01;;;;;;;2.10;1.80;;;14.90;63.60;;;;;;5007744;28;20648;-70
2022/10/04 08:14:48;;;;;;;4.27;1.60;;;14.90;63.60;;;;;;5027136;28;20471;-70
2022/10/04 08:17:31;;;;;;;1.53;1.43;;;14.90;63.60;;;;;;5018953;28;20466;-70
2022/10/04 08:20:18;;;;;;;1.70;1.60;;;14.90;63.60;;;;;;5006691;28;20463;-70
2022/10/04 08:22:59;;;;;;;2.47;2.03;;;14.90;63.70;;;;;;5014401;28;20440;-70
2022/10/04 08:25:34;;;;;;;1.80;1.63;;;14.80;63.60;;;;;;5005401;28;20557;-70
2022/10/04 08:31:20;;;;;;;1.80;1.57;;;14.90;63.70;;;;;;5001460;28;20907;-70
2022/10/04 08:34:05;;;;;;;2.27;2.00;;;14.90;63.70;;;;;;5004451;28;20436;-70
2022/10/04 08:36:47;;;;;;;2.10;1.90;;;14.90;63.90;;;;;;5026543;28;20502;-70
2022/10/04 08:39:34;;;;;;;2.47;1.87;;;14.90;63.60;;;;;;5023654;28;20484;-70
2022/10/04 08:42:28;;;;;;;2.07;1.87;;;14.90;63.80;;;;;;5020222;28;20527;-70
2022/10/04 08:45:26;;;;;;;2.20;1.90;;;14.90;63.70;;;;;;5007140;28;20511;-69
2022/10/04 08:48:32;;;;;;;1.80;1.70;;;14.90;63.70;;;;;;5014560;28;20527;-71
2022/10/04 08:51:43;;;;;;;1.70;1.60;;;14.90;63.60;;;;;;5011324;28;20479;-72
2022/10/04 08:54:57;;;;;;;2.93;1.60;;;14.90;63.60;;;;;;5008995;28;20555;-73
2022/10/04 08:57:53;;;;;;;1.53;1.43;;;15.00;63.60;;;;;;4965019;28;20529;-73
2022/10/04 09:00:29;;;;;;;1.83;1.60;;;15.00;63.50;;;;;;5010402;28;20764;-72
2022/10/04 09:03:39;;;;;;;2.00;1.60;;;15.00;63.50;;;;;;5006257;28;20660;-72
2022/10/04 09:06:20;;;;;;;1.50;1.40;;;15.00;63.40;;;;;;4964245;28;20546;-72
2022/10/04 09:09:25;;;;;;;1.63;1.53;;;15.00;63.30;;;;;;5009439;28;20600;-71
2022/10/04 09:12:14;;;;;;;2.40;1.97;;;15.00;63.20;;;;;;5029061;28;20455;-72
2022/10/04 09:15:10;;;;;;;1.77;1.53;;;15.00;63.40;;;;;;5012844;28;20518;-72
2022/10/04 09:17:53;;;;;;;1.80;1.70;;;15.00;63.40;;;;;;5006390;28;20515;-72
2022/10/04 09:20:31;;;;;;;3.00;1.40;;;15.00;63.30;;;;;;5026347;28;20501;-72
2022/10/04 09:23:21;;;;;;;1.80;1.70;;;15.00;63.40;;;;;;5012764;28;20447;-72
2022/10/04 09:29:31;;;;;;;1.83;1.57;;;15.10;63.30;;;;;;4948720;28;20526;-74
2022/10/04 09:32:48;;;;;;;2.27;2.00;;;15.00;63.20;;;;;;4935761;28;20907;-74
2022/10/04 09:35:49;;;;;;;2.60;2.07;;;15.00;63.30;;;;;;4906997;28;20476;-73
2022/10/04 09:38:52;;;;;;;1.50;1.40;;;15.00;63.40;;;;;;4910968;29;20460;-73
2022/10/04 09:41:55;;;;;;;2.33;1.80;;;15.00;63.40;;;;;;4941690;29;20436;-72
2022/10/04 09:44:55;;;;;;;2.00;1.77;;;15.00;63.30;;;;;;4944737;29;20549;-72
2022/10/04 09:47:36;;;;;;;1.63;1.53;;;15.10;63.40;;;;;;4930681;29;20478;-72
2022/10/04 09:50:38;;;;;;;1.30;1.20;;;15.00;63.20;;;;;;4918008;29;20471;-72
2022/10/04 09:53:32;;;;;;;2.00;1.60;;;15.00;63.20;;;;;;4934715;29;20482;-72
2022/10/04 09:56:25;;;;;;;2.30;1.97;;;15.00;63.10;;;;;;4929930;29;20780;-74
2022/10/04 09:59:20;;;;;;;1.53;1.10;;;15.00;63.20;;;;;;4937633;29;20503;-73
2022/10/04 10:02:27;;;;;;;2.50;2.00;;;15.10;63.30;;;;;;4947713;29;20428;-72
2022/10/04 10:05:15;;;;;;;2.43;1.70;;;15.10;63.40;;;;;;4923968;29;20484;-73
2022/10/04 10:07:52;;;;;;;2.57;1.50;;;15.00;63.30;;;;;;4927751;29;20975;-73
2022/10/04 10:13:41;;;;;;;1.40;1.30;;;15.10;63.50;;;;;;4940105;29;20566;-72
2022/10/04 10:16:32;;;;;;;1.60;1.50;;;15.00;63.70;;;;;;4940047;29;20462;-72
2022/10/04 10:19:27;;;;;;;2.10;1.90;;;15.00;63.30;;;;;;4917926;29;20479;-71
2022/10/04 10:22:07;;;;;;;1.90;1.63;;;15.00;63.40;;;;;;4933058;29;20448;-73
2022/10/04 10:25:02;;;;;;;1.30;1.20;;;15.00;63.60;;;;;;4942894;29;20861;-72
2022/10/04 10:27:53;;;;;;;1.87;1.73;;;15.00;63.40;;;;;;4946984;29;20532;-74
2022/10/04 10:30:26;;;;;;;1.83;1.73;;;15.00;63.50;;;;;;4919217;29;20464;-72
2022/10/04 10:33:41;;;;;;;1.80;1.57;;;15.00;63.50;;;;;;4931772;29;20555;-73
2022/10/04 10:36:22;;;;;;;2.10;1.60;;;15.00;63.60;;;;;;4864437;29;20561;-73
2022/10/04 10:39:03;;;;;;;2.80;1.40;;;15.00;63.60;;;;;;4934673;29;20459;-73
2022/10/04 10:41:46;;;;;;;1.70;1.60;;;15.00;63.50;;;;;;4923810;29;20528;-74
2022/10/04 10:44:29;;;;;;;1.60;1.50;;;15.00;63.60;;;;;;4939354;29;20504;-74
2022/10/04 10:47:29;;;;;;;1.47;1.37;;;15.00;63.60;;;;;;4938470;29;20491;-73
2022/10/04 10:50:17;;;;;;;2.50;1.40;;;15.00;63.60;;;;;;4931840;29;20500;-73
2022/10/04 10:53:15;;;;;;;2.13;1.47;;;15.00;63.70;;;;;;4942658;29;20493;-73
2022/10/04 10:56:12;;;;;;;2.33;1.53;;;15.00;63.60;;;;;;4918292;29;20443;-74
2022/10/04 10:59:16;;;;;;;1.93;1.60;;;15.00;63.60;;;;;;4932136;29;20459;-72
2022/10/04 11:02:19;;;;;;;1.40;1.30;;;15.00;63.70;;;;;;4907244;29;20805;-71
2022/10/04 11:05:23;;;;;;;1.80;1.60;;;15.00;63.70;;;;;;4940361;29;20472;-73
2022/10/04 11:07:54;;;;;;;1.60;1.50;;;15.00;63.80;;;;;;4918244;29;20445;-68
2022/10/04 11:11:12;;;;;;;2.40;1.50;;;15.00;63.70;;;;;;4927650;29;20487;-68
2022/10/04 11:14:12;;;;;;;1.87;1.53;;;15.00;63.70;;;;;;4917567;29;20477;-67
2022/10/04 11:17:14;;;;;;;1.70;1.60;;;15.00;63.60;;;;;;4947246;29;20464;-68
2022/10/04 11:20:33;;;;;;;3.23;1.57;;;15.00;63.60;;;;;;4945655;29;21058;-67
2022/10/04 11:23:47;;;;;;;1.97;1.50;;;15.00;63.70;;;;;;4925372;29;20973;-67
2022/10/04 11:26:55;;;;;;;2.40;1.70;;;15.00;63.70;;;;;;4917586;29;20466;-67
2022/10/04 11:29:41;;;;;;;1.40;1.30;;;15.00;63.70;;;;;;4938167;29;20480;-68
2022/10/04 11:33:08;;;;;;;1.43;1.33;;;15.00;63.80;;;;;;4946042;29;20527;-68
2022/10/04 11:36:09;;;;;;;1.80;1.70;;;15.00;63.80;;;;;;4932569;29;20460;-68
2022/10/04 11:38:57;;;;;;;2.20;1.37;;;15.00;63.70;;;;;;4890218;29;20523;-66
2022/10/04 11:41:37;;;;;;;1.93;1.67;;;15.00;63.70;;;;;;4923869;29;20460;-68
2022/10/04 11:44:28;;;;;;;1.90;1.80;;;15.00;64.60;;;;;;4940525;28;20825;-66
2022/10/04 11:47:02;;;;;;;5.97;2.40;;;15.00;64.70;;;;;;4941732;29;20836;-68
2022/10/04 11:50:03;;;;;;;5.93;2.90;;;15.10;66.10;;;;;;4924765;29;20475;-66
2022/10/04 11:53:09;;;;;;;3.30;2.60;;;15.10;66.90;;;;;;4922204;29;20465;-67
2022/10/04 11:56:09;;;;;;;4.20;2.80;;;15.20;68.00;;;;;;4937538;29;20456;-67
2022/10/04 11:58:52;;;;;;;3.87;2.70;;;15.20;67.40;;;;;;4947075;29;20440;-68
2022/10/04 12:02:11;;;;;;;3.37;2.83;;;15.20;66.60;;;;;;4930034;29;20818;-67
2022/10/04 12:05:27;;;;;;;5.57;3.07;;;15.20;66.30;;;;;;4919962;29;20465;-69
2022/10/04 12:08:12;;;;;;;3.20;2.67;;;15.20;66.50;;;;;;4918765;29;20877;-67
2022/10/04 12:10:42;;;;;;;4.60;2.50;;;15.20;66.50;;;;;;4917468;29;20446;-67
2022/10/04 12:13:37;;;;;;;3.93;2.13;;;15.20;66.30;;;;;;4924465;29;20540;-67
2022/10/04 12:16:38;;;;;;;2.63;2.43;;;15.20;66.10;;;;;;4939521;29;20496;-66
2022/10/04 12:19:38;;;;;;;2.30;2.10;;;15.20;66.10;;;;;;4946794;29;21063;-69
2022/10/04 12:22:27;;;;;;;2.57;2.37;;;15.20;66.00;;;;;;4924530;29;20439;-68
2022/10/04 12:25:42;;;;;;;2.23;2.00;;;15.10;65.80;;;;;;4923011;29;20520;-67
2022/10/04 12:28:39;;;;;;;2.47;2.17;;;15.10;65.80;;;;;;4889040;29;20950;-68
2022/10/04 12:31:21;;;;;;;2.33;2.13;;;15.10;65.70;;;;;;4892698;29;20458;-68
2022/10/04 12:33:58;;;;;;;2.50;2.00;;;15.10;65.80;;;;;;4929959;29;20464;-68
2022/10/04 12:36:44;;;;;;;2.27;2.07;;;15.10;65.70;;;;;;4940689;29;20482;-66
2022/10/04 12:39:29;;;;;;;2.30;2.10;;;15.10;65.60;;;;;;4944298;29;20475;-66
2022/10/04 12:42:13;;;;;;;2.57;2.00;;;15.10;65.60;;;;;;4929073;29;20494;-68
2022/10/04 12:45:01;;;;;;;2.47;2.00;;;15.10;65.60;;;;;;4916401;29;20547;-66
2022/10/04 12:47:54;;;;;;;2.40;2.00;;;15.10;65.60;;;;;;4904202;29;20619;-68
2022/10/04 12:50:34;;;;;;;2.90;2.00;;;15.10;65.70;;;;;;4931861;29;20875;-68
2022/10/04 12:53:18;;;;;;;2.23;1.73;;;15.10;65.40;;;;;;4934864;29;20471;-67
2022/10/04 12:56:01;;;;;;;2.30;1.50;;;15.10;65.50;;;;;;4936450;29;20447;-68
2022/10/04 12:58:44;;;;;;;2.50;1.80;;;15.10;65.50;;;;;;4929923;29;20546;-67
2022/10/04 13:01:20;;;;;;;2.23;1.80;;;15.10;65.70;;;;;;4924399;29;20459;-66
2022/10/04 13:04:21;;;;;;;2.40;1.87;;;15.10;65.50;;;;;;4923649;29;20477;-68
2022/10/04 13:07:05;;;;;;;1.67;1.57;;;15.10;65.50;;;;;;4924866;29;20463;-66
2022/10/04 13:09:47;;;;;;;2.20;1.90;;;15.10;65.50;;;;;;4923637;29;20564;-68
2022/10/04 13:12:46;;;;;;;1.90;1.60;;;15.10;65.40;;;;;;4944318;29;20983;-68
2022/10/04 13:15:29;;;;;;;2.10;1.33;;;15.10;65.40;;;;;;4923734;29;20551;-67
2022/10/04 13:18:25;;;;;;;1.67;1.57;;;15.10;65.30;;;;;;4938575;29;20462;-67
2022/10/04 13:21:03;;;;;;;1.97;1.87;;;15.10;65.50;;;;;;4931820;29;20663;-67
2022/10/04 13:23:53;;;;;;;3.03;1.93;;;15.10;65.40;;;;;;4939917;29;20464;-67
2022/10/04 13:26:45;;;;;;;2.23;2.03;;;15.10;65.40;;;;;;4921405;29;20504;-68
2022/10/04 13:29:22;;;;;;;3.27;1.63;;;15.10;65.40;;;;;;4926842;29;20503;-66
2022/10/04 13:31:59;;;;;;;2.43;1.80;;;15.10;65.50;;;;;;4939434;29;20441;-67
2022/10/04 13:34:36;;;;;;;2.27;2.07;;;15.20;65.40;;;;;;4926184;29;21054;-67
2022/10/04 13:37:30;;;;;;;2.10;1.90;;;15.10;65.30;;;;;;4939284;29;20463;-68
2022/10/04 13:40:27;;;;;;;2.40;1.87;;;15.10;65.30;;;;;;4945870;28;20546;-68
2022/10/04 13:43:26;;;;;;;3.57;1.70;;;15.10;65.40;;;;;;4919361;29;20900;-68
2022/10/04 13:46:16;;;;;;;2.77;1.80;;;15.10;65.30;;;;;;4937782;29;20428;-68
2022/10/04 13:49:11;;;;;;;2.33;2.13;;;15.20;65.40;;;;;;4927567;29;20562;-68
2022/10/04 13:57:47;;;;;;;1.73;1.43;;;15.20;65.40;;;;;;4931760;29;20458;-73
2022/10/04 14:00:33;;;;;;;2.00;1.80;;;15.20;65.40;;;;;;4934012;29;20559;-72
2022/10/04 14:03:29;;;;;;;3.10;2.90;;;15.20;65.40;;;;;;4947644;29;20483;-73
2022/10/04 14:06:19;;;;;;;1.43;1.33;;;15.20;65.40;;;;;;4931170;29;20435;-73
2022/10/04 14:09:29;;;;;;;2.37;1.47;;;15.20;65.40;;;;;;4927139;29;20530;-73
2022/10/04 14:12:40;;;;;;;1.73;1.50;;;15.20;65.30;;;;;;4876761;29;21019;-72
2022/10/04 14:15:38;;;;;;;2.23;2.03;;;15.20;65.40;;;;;;4888350;29;20999;-73
2022/10/04 14:18:38;;;;;;;1.63;1.53;;;15.20;65.40;;;;;;4929760;29;20438;-74
2022/10/04 14:21:46;;;;;;;1.70;1.60;;;15.20;65.30;;;;;;4940627;29;20455;-73
2022/10/04 14:25:02;;;;;;;1.93;1.77;;;15.30;65.50;;;;;;4941645;28;20472;-73
2022/10/04 14:27:58;;;;;;;1.50;1.40;;;15.20;65.30;;;;;;4943709;29;20459;-73
2022/10/04 14:30:39;;;;;;;1.67;1.57;;;15.20;65.30;;;;;;4943847;29;20464;-73